Time;durP1;ratioP1;P1;durP2;ratioP2;P2;SDS_P1;SDS_P2;PMS_P1;PMS_P2;Temp;Humidity;BMP_temperature;BMP_pressure;BME280_temperature;BME280_humidity;BME280_pressure;Samples;Min_cycle;Max_cycle;Signal;HPM_P1;HPM_P2
2022/07/16 00:02:36;;;;;;;4.95;4.55;;;15.60;97.20;;;16.42;64.00;98338.09;5138141;28;20223;-57
2022/07/16 00:05:09;;;;;;;4.93;4.63;;;15.50;97.10;;;16.39;64.08;98341.44;5140132;28;20566;-56
2022/07/16 00:07:44;;;;;;;5.13;4.82;;;15.50;97.70;;;16.38;65.11;98344.84;5138637;28;20278;-57
2022/07/16 00:10:17;;;;;;;5.15;4.65;;;15.50;97.70;;;16.31;65.41;98335.09;5138270;28;20203;-57
2022/07/16 00:12:50;;;;;;;5.75;5.30;;;15.50;97.80;;;16.33;64.73;98337.72;5138350;28;20727;-55
2022/07/16 00:15:23;;;;;;;5.85;5.25;;;15.50;97.80;;;16.39;64.78;98340.56;5138380;28;20860;-56
2022/07/16 00:20:44;;;;;;;5.13;4.57;;;15.50;97.30;;;16.21;65.06;98346.72;5137452;28;20224;-57
2022/07/16 00:23:19;;;;;;;5.50;5.10;;;15.40;97.90;;;16.19;64.70;98343.19;5140389;28;20263;-57
2022/07/16 00:25:52;;;;;;;5.10;4.65;;;15.30;97.90;;;16.14;65.16;98342.13;5139560;28;20207;-60
2022/07/16 00:28:25;;;;;;;5.78;5.28;;;15.20;98.40;;;16.09;65.09;98341.03;5142098;28;20252;-57
2022/07/16 00:30:58;;;;;;;5.65;5.20;;;15.20;98.50;;;16.05;65.51;98339.13;5138363;28;20629;-57
2022/07/16 00:33:31;;;;;;;5.30;4.85;;;15.20;98.50;;;16.00;65.95;98335.50;5139317;28;20204;-58
2022/07/16 00:36:06;;;;;;;5.47;4.97;;;15.20;98.60;;;15.97;65.63;98336.22;5138130;28;20196;-59
2022/07/16 00:38:40;;;;;;;5.13;4.72;;;15.10;98.50;;;15.98;65.52;98342.25;5136629;28;20628;-57
2022/07/16 00:41:17;;;;;;;5.18;4.82;;;15.00;98.80;;;15.91;65.59;98341.13;5140009;28;20223;-58
2022/07/16 00:43:53;;;;;;;5.45;5.00;;;14.90;98.90;;;15.87;66.60;98343.50;5135117;28;20195;-57
2022/07/16 00:46:26;;;;;;;5.20;4.88;;;14.90;99.40;;;15.70;67.73;98348.78;5138926;28;20203;-59
2022/07/16 00:49:00;;;;;;;5.57;5.07;;;14.90;99.60;;;15.67;66.67;98346.03;5141855;28;20652;-59
2022/07/16 00:51:36;;;;;;;5.63;5.18;;;14.80;99.20;;;15.68;66.16;98342.69;5140617;28;20845;-57
2022/07/16 00:54:10;;;;;;;6.20;5.80;;;14.80;99.40;;;15.57;66.23;98342.97;5137700;28;20552;-59
2022/07/16 00:56:44;;;;;;;5.88;5.38;;;14.70;99.00;;;15.52;65.64;98340.19;5139253;28;20716;-57
2022/07/16 00:59:17;;;;;;;5.07;4.78;;;14.60;98.90;;;15.41;66.71;98337.13;5142586;28;20235;-60
2022/07/16 01:01:50;;;;;;;5.57;5.18;;;14.50;99.50;;;15.42;66.65;98338.00;5139363;28;20231;-60
2022/07/16 01:04:24;;;;;;;6.45;5.22;;;14.50;99.70;;;15.40;66.55;98332.78;5137212;28;20271;-59
2022/07/16 01:06:57;;;;;;;5.53;5.10;;;14.50;99.90;;;15.46;67.18;98345.94;5140440;28;20282;-62
2022/07/16 01:09:34;;;;;;;5.25;4.85;;;14.50;99.90;;;15.49;67.05;98340.06;5140151;28;20246;-56
2022/07/16 01:12:07;;;;;;;6.32;5.72;;;14.60;99.90;;;15.44;67.01;98341.53;5139819;28;20220;-55
2022/07/16 01:14:41;;;;;;;6.03;5.53;;;14.50;99.90;;;15.37;67.98;98334.34;5138241;28;20270;-60
2022/07/16 01:17:14;;;;;;;6.03;5.63;;;14.50;99.90;;;15.33;67.77;98339.34;5137669;28;20200;-57
2022/07/16 01:19:47;;;;;;;6.10;5.70;;;14.50;99.90;;;15.27;68.49;98341.63;5139454;28;20196;-57
2022/07/16 01:22:23;;;;;;;5.93;5.43;;;14.40;99.90;;;15.27;68.33;98346.78;5141743;28;20224;-57
2022/07/16 01:24:58;;;;;;;7.00;6.45;;;14.40;99.90;;;15.25;68.24;98340.69;5142156;28;20203;-59
2022/07/16 01:27:31;;;;;;;6.40;5.93;;;14.50;99.90;;;15.24;68.52;98351.78;5144391;28;20203;-56
2022/07/16 01:30:08;;;;;;;7.13;6.53;;;14.40;99.90;;;15.18;68.28;98342.91;5144672;28;20598;-54
2022/07/16 01:32:41;;;;;;;6.80;6.28;;;14.30;99.90;;;15.12;68.66;98346.09;5142782;28;20216;-58
2022/07/16 01:35:14;;;;;;;6.75;6.25;;;14.30;99.90;;;15.05;67.82;98347.50;5142646;28;20215;-59
2022/07/16 01:37:47;;;;;;;6.90;6.40;;;14.20;99.90;;;15.07;68.87;98348.44;5144402;28;20645;-57
2022/07/16 01:40:22;;;;;;;6.47;5.93;;;14.20;99.90;;;15.03;67.80;98350.81;5145667;28;20216;-55
2022/07/16 01:42:55;;;;;;;6.22;5.78;;;14.20;99.90;;;14.98;68.57;98360.00;5138081;28;20278;-58
2022/07/16 01:45:28;;;;;;;6.00;5.60;;;14.10;99.90;;;14.95;68.83;98354.69;5146107;28;20208;-57
2022/07/16 01:48:01;;;;;;;6.15;5.60;;;14.10;99.90;;;14.90;69.13;98357.03;5139724;28;20247;-56
2022/07/16 01:50:36;;;;;;;7.20;6.45;;;14.10;99.90;;;14.82;68.27;98353.22;5141863;28;20250;-59
2022/07/16 01:53:10;;;;;;;7.00;6.40;;;14.00;99.90;;;14.72;68.67;98362.19;5143494;28;20195;-59
2022/07/16 01:55:45;;;;;;;7.22;6.53;;;13.70;99.90;;;14.46;70.51;98350.59;5143020;28;20749;-59
2022/07/16 01:58:18;;;;;;;6.10;5.60;;;13.60;99.90;;;14.56;71.24;98351.94;5142709;28;20200;-60
2022/07/16 02:00:51;;;;;;;6.72;6.20;;;13.70;99.90;;;14.53;70.89;98344.97;5142160;28;20232;-54
2022/07/16 02:03:24;;;;;;;6.30;5.80;;;13.70;99.90;;;14.55;70.31;98352.75;5141384;28;20282;-57
2022/07/16 02:05:58;;;;;;;6.10;5.57;;;13.70;99.90;;;14.54;71.38;98353.59;5139137;28;20240;-61
2022/07/16 02:08:31;;;;;;;7.18;6.57;;;13.70;99.90;;;14.53;71.50;98354.38;5140394;28;20191;-58
2022/07/16 02:11:06;;;;;;;7.00;6.30;;;13.80;99.90;;;14.54;71.42;98351.00;5140670;28;20280;-59
2022/07/16 02:13:39;;;;;;;6.60;6.10;;;13.80;99.90;;;14.51;70.74;98350.81;5143168;28;20227;-57
2022/07/16 02:16:12;;;;;;;6.13;5.72;;;13.70;99.90;;;14.49;71.07;98353.31;5140904;28;20613;-61
2022/07/16 02:18:46;;;;;;;6.90;6.30;;;13.70;99.90;;;14.47;70.81;98357.47;5138885;28;20208;-56
2022/07/16 02:21:19;;;;;;;6.60;6.20;;;13.70;99.90;;;14.52;70.60;98357.75;5143831;28;20252;-58
2022/07/16 02:23:52;;;;;;;6.47;5.97;;;13.70;99.90;;;14.46;71.93;98363.44;5141224;28;20714;-58
2022/07/16 02:26:27;;;;;;;6.45;5.82;;;13.70;99.90;;;14.43;70.69;98363.28;5142895;28;20630;-58
2022/07/16 02:29:00;;;;;;;6.63;6.10;;;13.70;99.90;;;14.43;70.55;98355.56;5143311;28;20235;-56
2022/07/16 02:31:45;;;;;;;6.30;5.80;;;13.70;99.90;;;14.41;71.09;98360.63;5141972;28;20654;-60
2022/07/16 02:34:18;;;;;;;6.57;6.07;;;13.60;99.90;;;14.38;70.96;98352.75;5142418;28;20247;-60
2022/07/16 02:36:51;;;;;;;6.53;6.03;;;13.50;99.90;;;14.37;70.79;98353.59;5142728;28;20582;-57
2022/07/16 02:39:24;;;;;;;6.50;6.00;;;13.50;99.90;;;14.30;70.66;98359.22;5140879;28;20200;-59
2022/07/16 02:41:59;;;;;;;6.50;6.03;;;13.50;99.90;;;14.18;70.57;98350.88;5140950;28;20286;-58
2022/07/16 02:44:32;;;;;;;6.85;6.03;;;13.40;99.90;;;14.17;72.22;98351.69;5139141;28;20951;-57
2022/07/16 02:47:05;;;;;;;6.70;6.10;;;13.40;99.90;;;14.19;71.55;98352.63;5139159;28;20642;-57
2022/07/16 02:49:38;;;;;;;7.00;6.45;;;13.40;99.90;;;14.18;71.07;98356.03;5140292;28;20635;-60
2022/07/16 02:52:11;;;;;;;6.47;6.00;;;13.40;99.90;;;14.06;71.57;98355.41;5138597;28;20270;-60
2022/07/16 02:54:44;;;;;;;6.70;6.28;;;13.20;99.90;;;14.00;72.18;98355.09;5143284;28;20246;-57
2022/07/16 02:57:19;;;;;;;8.48;6.15;;;13.20;99.90;;;13.96;71.19;98362.66;5140597;28;20263;-60
2022/07/16 02:59:52;;;;;;;6.80;6.13;;;13.20;99.90;;;14.02;71.96;98354.38;5138023;28;20203;-54
2022/07/16 03:02:25;;;;;;;6.78;6.25;;;13.20;99.90;;;14.05;71.86;98358.75;5142945;28;20236;-57
2022/07/16 03:04:58;;;;;;;6.60;6.10;;;13.20;99.90;;;13.95;71.34;98358.28;5139640;28;20207;-57
2022/07/16 03:07:32;;;;;;;6.63;6.22;;;13.20;99.90;;;13.87;73.03;98356.13;5139183;28;20471;-58
2022/07/16 03:10:08;;;;;;;7.10;6.60;;;13.10;99.90;;;13.81;72.66;98364.41;5142642;28;20628;-56
2022/07/16 03:12:43;;;;;;;6.78;6.18;;;13.10;99.90;;;13.81;73.84;98366.97;5140366;28;20215;-57
2022/07/16 03:15:16;;;;;;;7.18;6.30;;;13.20;99.90;;;13.85;72.80;98361.22;5139570;28;20273;-59
2022/07/16 03:17:49;;;;;;;6.55;6.13;;;13.20;99.90;;;13.86;72.65;98365.53;5140496;28;20204;-57
2022/07/16 03:20:23;;;;;;;6.55;6.05;;;13.20;99.90;;;13.88;73.12;98363.94;5137130;28;20607;-58
2022/07/16 03:22:57;;;;;;;6.75;6.18;;;13.20;99.90;;;13.91;72.24;98366.66;5140951;28;20427;-53
2022/07/16 03:25:30;;;;;;;6.65;6.15;;;13.20;99.90;;;13.88;71.98;98365.63;5138823;28;20208;-57
2022/07/16 03:28:05;;;;;;;7.18;6.55;;;13.10;99.90;;;13.88;72.02;98363.94;5143898;28;20200;-59
2022/07/16 03:30:38;;;;;;;6.22;5.82;;;13.10;99.90;;;13.81;73.43;98364.41;5142772;28;20595;-59
2022/07/16 03:33:12;;;;;;;7.28;6.78;;;13.10;99.90;;;13.81;72.49;98368.66;5140752;28;20243;-58
2022/07/16 03:35:45;;;;;;;7.38;6.75;;;13.00;99.90;;;13.81;71.90;98369.53;5141010;28;20348;-55
2022/07/16 03:41:09;;;;;;;7.38;6.65;;;13.00;99.90;;;13.69;72.93;98363.75;5141243;28;20232;-59
2022/07/16 03:43:43;;;;;;;6.97;6.47;;;12.80;99.90;;;13.67;72.54;98365.38;5139073;28;20290;-58
2022/07/16 03:46:16;;;;;;;7.63;7.03;;;12.90;99.90;;;13.66;73.25;98366.19;5142454;28;20270;-54
2022/07/16 03:48:49;;;;;;;6.82;6.30;;;12.90;99.90;;;13.50;72.42;98357.63;5139156;28;20204;-60
2022/07/16 03:51:23;;;;;;;6.40;5.93;;;12.70;99.90;;;13.55;72.67;98370.72;5141189;28;20751;-58
2022/07/16 03:53:56;;;;;;;6.85;6.22;;;12.70;99.90;;;13.55;73.23;98368.16;5138207;28;20290;-57
2022/07/16 03:56:30;;;;;;;6.93;6.43;;;12.80;99.90;;;13.55;74.09;98380.13;5141765;28;20208;-57
2022/07/16 03:59:05;;;;;;;6.93;6.43;;;12.80;99.90;;;13.56;73.16;98381.88;5138978;28;20205;-59
2022/07/16 04:01:38;;;;;;;7.28;6.68;;;12.80;99.90;;;13.60;73.84;98386.41;5139220;28;20272;-58
2022/07/16 04:04:11;;;;;;;6.32;5.82;;;12.90;99.90;;;13.56;73.03;98394.72;5139007;28;20283;-57
2022/07/16 04:06:45;;;;;;;6.80;6.30;;;12.80;99.90;;;13.59;72.90;98397.47;5138917;28;20311;-58
2022/07/16 04:09:18;;;;;;;6.95;6.40;;;12.80;99.90;;;13.57;72.61;98397.41;5141209;28;20208;-57
2022/07/16 04:11:51;;;;;;;6.45;5.95;;;12.80;99.90;;;13.50;72.73;98392.72;5137802;28;20636;-56
2022/07/16 04:14:26;;;;;;;7.47;6.97;;;12.70;99.90;;;13.43;73.29;98391.50;5138633;28;20204;-60
2022/07/16 04:16:59;;;;;;;6.57;6.07;;;12.60;99.90;;;13.44;73.00;98395.81;5139731;28;20625;-59
2022/07/16 04:19:32;;;;;;;7.30;6.75;;;12.60;99.90;;;13.43;73.82;98394.06;5138145;28;20672;-57
2022/07/16 04:22:05;;;;;;;7.40;6.80;;;12.60;99.90;;;13.46;73.97;98396.81;5140519;28;20271;-60
2022/07/16 04:24:38;;;;;;;7.82;7.13;;;12.70;99.90;;;13.38;74.97;98398.06;5140885;28;20267;-55
2022/07/16 04:27:11;;;;;;;7.53;6.93;;;12.60;99.90;;;13.42;74.00;98397.44;5139036;28;20644;-61
2022/07/16 04:29:46;;;;;;;7.63;6.93;;;12.70;99.90;;;13.50;73.68;98392.72;5135415;28;20259;-57
2022/07/16 04:32:20;;;;;;;9.30;7.18;;;12.80;99.90;;;13.60;73.58;98404.38;5134610;28;20268;-57
2022/07/16 04:34:54;;;;;;;7.60;6.90;;;12.90;99.90;;;13.68;73.65;98392.84;5138468;28;20299;-58
2022/07/16 04:37:27;;;;;;;6.78;6.32;;;12.90;99.90;;;13.82;73.34;98394.47;5136552;28;20204;-57
2022/07/16 04:40:00;;;;;;;7.18;6.68;;;13.10;99.90;;;13.80;73.29;98398.63;5140041;28;20250;-60
2022/07/16 04:42:34;;;;;;;6.90;6.40;;;13.10;99.90;;;13.84;72.18;98400.53;5137837;28;20227;-56
2022/07/16 04:45:10;;;;;;;7.25;6.65;;;13.00;99.90;;;13.77;71.95;98398.47;5140635;28;20200;-57
2022/07/16 04:47:43;;;;;;;7.53;7.03;;;13.00;99.90;;;13.74;73.22;98401.75;5138683;28;20199;-58
2022/07/16 04:50:16;;;;;;;7.63;6.90;;;12.80;99.90;;;13.81;72.50;98404.63;5140810;28;20246;-59
2022/07/16 04:52:57;;;;;;;7.53;6.82;;;12.90;99.90;;;13.85;72.90;98404.91;5135298;28;20200;-54
2022/07/16 04:55:30;;;;;;;7.70;7.05;;;13.00;99.90;;;13.82;72.27;98407.31;5139202;28;20645;-54
2022/07/16 04:58:03;;;;;;;6.57;6.07;;;13.00;99.90;;;13.85;72.04;98406.56;5145921;28;20200;-54
2022/07/16 05:00:38;;;;;;;6.93;6.38;;;12.80;99.90;;;14.01;71.63;98410.81;5146133;28;20605;-57
2022/07/16 05:03:11;;;;;;;7.50;6.95;;;13.00;99.90;;;14.23;70.71;98412.84;5143839;28;20226;-55
2022/07/16 05:05:50;;;;;;;6.80;6.20;;;13.30;99.90;;;14.72;70.44;98408.50;5141424;28;20196;-54
2022/07/16 05:08:23;;;;;;;6.88;6.38;;;13.90;99.90;;;15.36;67.71;98408.16;5141635;28;20681;-55
2022/07/16 05:10:56;;;;;;;7.00;6.40;;;14.30;99.90;;;15.94;65.21;98410.00;5142729;28;20264;-59
2022/07/16 05:13:29;;;;;;;6.35;5.95;;;14.70;99.90;;;16.25;63.98;98409.63;5135500;28;20207;-54
2022/07/16 05:16:05;;;;;;;6.55;5.95;;;15.00;99.90;;;16.51;63.80;98408.19;5141233;28;20208;-54
2022/07/16 05:18:38;;;;;;;6.28;5.70;;;15.20;99.90;;;16.74;61.77;98413.41;5143886;28;20199;-53
2022/07/16 05:21:11;;;;;;;6.30;5.85;;;15.40;99.10;;;16.73;61.28;98414.25;5142150;28;20642;-57
2022/07/16 05:23:52;;;;;;;7.13;6.13;;;15.50;98.80;;;16.97;61.23;98420.47;5142189;28;20548;-60
2022/07/16 05:26:25;;;;;;;6.90;6.40;;;15.60;98.50;;;17.48;59.84;98410.44;5142417;28;20258;-59
2022/07/16 05:28:58;;;;;;;6.13;5.68;;;16.10;97.70;;;18.03;58.28;98406.50;5140492;28;20204;-60
2022/07/16 05:31:33;;;;;;;6.00;5.50;;;16.70;96.50;;;18.72;54.91;98415.81;5135971;28;20271;-61
2022/07/16 05:34:06;;;;;;;6.03;5.53;;;17.20;95.00;;;19.19;54.22;98412.19;5142951;28;20200;-61
2022/07/16 05:36:39;;;;;;;5.82;5.32;;;17.50;94.70;;;19.63;52.99;98407.53;5142127;28;20215;-59
2022/07/16 05:39:13;;;;;;;6.30;5.70;;;18.00;93.70;;;20.09;51.53;98410.59;5136930;28;20204;-61
2022/07/16 05:41:46;;;;;;;5.70;5.20;;;18.40;92.70;;;20.46;50.79;98412.50;5141171;28;20239;-62
2022/07/16 05:44:19;;;;;;;5.90;5.32;;;18.70;92.10;;;20.84;49.71;98407.47;5143296;28;20599;-62
2022/07/16 05:46:53;;;;;;;6.40;5.90;;;19.00;91.50;;;21.12;48.86;98414.22;5143253;28;20200;-62
2022/07/16 05:49:27;;;;;;;6.45;5.95;;;19.10;91.20;;;21.41;48.46;98406.28;5139010;28;20255;-62
2022/07/16 05:52:00;;;;;;;7.18;5.60;;;19.40;90.90;;;21.62;47.49;98406.72;5139000;28;20754;-62
2022/07/16 05:54:33;;;;;;;6.07;5.57;;;19.70;90.20;;;21.82;47.18;98412.38;5142685;28;20263;-62
2022/07/16 05:57:07;;;;;;;6.15;5.55;;;19.80;90.00;;;22.13;46.37;98411.28;5135440;28;20207;-62
2022/07/16 05:59:40;;;;;;;5.60;5.20;;;20.10;88.80;;;22.45;45.80;98408.47;5141440;28;20282;-59
2022/07/16 06:02:14;;;;;;;6.25;5.75;;;20.20;88.60;;;22.78;45.10;98413.41;5141045;28;20224;-61
2022/07/16 06:04:47;;;;;;;6.28;5.68;;;20.40;87.70;;;22.98;44.32;98405.06;5135773;28;20215;-62
2022/07/16 06:07:21;;;;;;;5.63;5.22;;;20.50;87.40;;;23.10;44.22;98413.13;5143398;28;20212;-62
2022/07/16 06:09:54;;;;;;;6.55;5.78;;;20.70;87.00;;;23.13;43.90;98413.16;5132856;28;20628;-64
2022/07/16 06:12:27;;;;;;;6.40;5.90;;;20.70;86.20;;;23.16;43.73;98410.59;5139794;28;20220;-62
2022/07/16 06:15:00;;;;;;;5.88;5.38;;;20.60;86.10;;;23.70;42.50;98414.00;5138924;28;20722;-62
2022/07/16 06:17:35;;;;;;;5.68;5.28;;;20.90;85.70;;;23.81;42.51;98413.34;5139813;28;20208;-63
2022/07/16 06:20:10;;;;;;;6.90;5.07;;;21.00;84.80;;;24.07;42.13;98404.97;5142959;28;20204;-62
2022/07/16 06:22:43;;;;;;;5.72;5.22;;;21.40;83.90;;;24.61;41.14;98414.31;5134558;28;20223;-63
2022/07/16 06:25:17;;;;;;;6.15;5.55;;;21.70;83.40;;;24.98;39.58;98414.66;5138500;28;20796;-63
2022/07/16 06:27:51;;;;;;;5.40;5.10;;;22.10;81.40;;;25.01;39.53;98405.94;5144762;28;20255;-63
2022/07/16 06:30:24;;;;;;;5.25;4.90;;;22.00;81.20;;;25.28;38.96;98413.16;5135266;28;20625;-63
2022/07/16 06:32:59;;;;;;;5.65;5.15;;;22.20;81.10;;;25.58;38.81;98412.47;5138851;28;20207;-62
2022/07/16 06:35:32;;;;;;;5.60;5.10;;;22.30;80.40;;;25.83;38.50;98408.28;5139736;28;20203;-60
2022/07/16 06:38:05;;;;;;;6.10;5.60;;;22.60;80.70;;;26.04;37.26;98412.75;5140257;28;20196;-63
2022/07/16 06:40:42;;;;;;;5.65;5.13;;;22.60;78.50;;;26.06;37.76;98417.13;5136614;28;20286;-60
2022/07/16 06:43:15;;;;;;;6.00;5.10;;;23.00;78.40;;;26.48;36.63;98418.16;5139424;28;20638;-63
2022/07/16 06:45:48;;;;;;;5.90;5.40;;;23.40;76.50;;;26.85;35.91;98420.88;5145086;28;20632;-63
2022/07/16 06:48:24;;;;;;;5.65;5.15;;;23.50;75.50;;;27.09;35.60;98413.88;5138610;28;20240;-63
2022/07/16 06:50:57;;;;;;;5.90;5.10;;;23.80;75.50;;;27.44;34.75;98421.78;5138536;28;20219;-64
2022/07/16 06:53:30;;;;;;;5.32;4.35;;;24.10;74.10;;;27.10;34.97;98420.88;5131415;28;20262;-63
2022/07/16 06:56:06;;;;;;;5.22;4.82;;;23.90;73.70;;;27.45;34.40;98422.66;5139261;28;20197;-63
2022/07/16 06:58:39;;;;;;;5.20;4.80;;;24.30;72.40;;;27.42;33.84;98423.53;5132544;28;20617;-63
2022/07/16 07:01:12;;;;;;;5.90;4.93;;;24.20;71.70;;;27.64;34.24;98432.25;5133608;28;20747;-64
2022/07/16 07:03:47;;;;;;;5.22;4.72;;;24.30;73.30;;;27.43;34.55;98424.41;5139318;28;20498;-63
2022/07/16 07:06:20;;;;;;;5.03;4.63;;;24.20;72.50;;;27.57;34.26;98427.91;5138228;28;20215;-62
2022/07/16 07:08:54;;;;;;;4.80;4.40;;;24.30;72.10;;;27.99;34.17;98431.34;5136584;28;20220;-63
2022/07/16 07:11:28;;;;;;;5.28;4.63;;;24.60;72.30;;;27.97;33.43;98427.81;5141839;28;20229;-63
2022/07/16 07:14:01;;;;;;;4.78;4.38;;;24.90;70.80;;;28.08;33.42;98431.28;5138927;28;20231;-62
2022/07/16 07:16:34;;;;;;;5.30;4.80;;;24.90;70.10;;;28.08;34.09;98433.94;5143153;28;20195;-63
2022/07/16 07:19:09;;;;;;;5.00;4.43;;;25.10;71.00;;;28.42;33.27;98436.44;5141275;28;20246;-63
2022/07/16 07:21:42;;;;;;;4.97;4.38;;;25.20;70.70;;;28.58;33.10;98432.81;5140144;28;20222;-62
2022/07/16 07:24:15;;;;;;;5.22;4.82;;;25.30;69.70;;;28.74;32.18;98433.63;5141684;28;20219;-63
2022/07/16 07:27:08;;;;;;;5.53;5.07;;;25.60;69.00;;;28.59;32.63;98433.69;5137859;28;20200;-63
2022/07/16 07:29:41;;;;;;;4.95;4.30;;;25.40;69.50;;;28.89;32.46;98435.25;5135966;28;20239;-59
2022/07/16 07:32:14;;;;;;;5.28;4.88;;;25.80;69.20;;;29.07;32.65;98432.50;5137233;28;20219;-61
2022/07/16 07:34:49;;;;;;;4.93;4.47;;;26.10;69.20;;;29.34;32.31;98430.56;5137024;28;20723;-60
2022/07/16 07:37:22;;;;;;;4.95;4.47;;;26.20;69.00;;;28.93;33.80;98429.06;5136955;28;20203;-60
2022/07/16 07:39:59;;;;;;;5.00;4.50;;;26.10;69.60;;;29.21;32.85;98424.50;5137466;28;20234;-60
2022/07/16 07:42:32;;;;;;;5.22;4.82;;;26.20;69.00;;;28.96;33.14;98434.34;5138030;28;20227;-61
2022/07/16 07:45:08;;;;;;;4.93;4.60;;;25.70;69.90;;;29.20;32.82;98430.69;5135568;28;20642;-61
2022/07/16 07:47:41;;;;;;;5.22;4.82;;;26.20;68.80;;;29.03;32.67;98425.53;5138620;28;20214;-60
2022/07/16 07:50:15;;;;;;;5.32;4.93;;;26.30;68.10;;;29.30;32.65;98428.81;5133078;28;20212;-61
2022/07/16 07:52:49;;;;;;;5.00;4.50;;;26.30;68.90;;;29.60;32.29;98428.53;5134221;28;20257;-61
2022/07/16 07:55:22;;;;;;;7.95;4.60;;;26.70;67.60;;;29.48;32.36;98420.75;5140015;28;20200;-61
2022/07/16 07:57:59;;;;;;;4.72;4.25;;;26.70;68.30;;;29.04;32.59;98422.00;5139016;28;20210;-61
2022/07/16 08:00:32;;;;;;;7.07;4.03;;;26.60;66.60;;;29.88;30.42;98417.75;5132794;28;20240;-61
2022/07/16 08:03:13;;;;;;;4.55;4.15;;;27.10;64.20;;;30.16;30.34;98414.75;5138844;28;20203;-61
2022/07/16 08:05:48;;;;;;;4.07;3.78;;;27.00;64.60;;;30.25;29.97;98417.34;5139445;28;20270;-61
2022/07/16 08:08:21;;;;;;;4.05;3.42;;;27.10;64.20;;;30.44;29.27;98421.44;5139632;28;20750;-61
2022/07/16 08:10:58;;;;;;;4.00;3.42;;;27.50;62.40;;;30.67;28.27;98414.97;5138177;28;20251;-61
2022/07/16 08:13:33;;;;;;;4.72;3.75;;;27.70;60.80;;;30.79;27.66;98420.13;5135119;28;20235;-61
2022/07/16 08:16:06;;;;;;;4.50;3.70;;;27.80;59.90;;;30.96;27.56;98417.19;5136512;28;20211;-62
2022/07/16 08:18:39;;;;;;;4.95;3.38;;;27.90;60.00;;;30.95;26.99;98413.69;5133631;28;20203;-60
2022/07/16 08:21:14;;;;;;;4.45;3.60;;;28.10;58.80;;;31.06;27.59;98407.38;5135782;28;20273;-61
2022/07/16 08:26:38;;;;;;;3.45;2.90;;;28.10;58.80;;;30.58;26.77;98415.97;5139222;28;20249;-62
2022/07/16 08:29:12;;;;;;;3.25;2.95;;;27.90;57.10;;;30.68;25.93;98411.47;5139923;28;20628;-60
2022/07/16 08:31:45;;;;;;;3.60;2.97;;;28.00;56.60;;;30.56;25.89;98407.19;5138636;28;20219;-61
2022/07/16 08:34:19;;;;;;;3.30;2.63;;;27.90;56.60;;;29.58;27.72;98409.22;5143306;28;20200;-61
2022/07/16 08:36:54;;;;;;;3.28;3.08;;;27.70;57.60;;;29.53;28.61;98410.16;5135080;28;20258;-60
2022/07/16 08:39:27;;;;;;;3.30;3.03;;;27.60;58.00;;;29.20;28.67;98412.25;5139695;28;20284;-61
2022/07/16 08:42:00;;;;;;;4.18;2.63;;;27.60;58.10;;;29.61;28.95;98414.47;5134736;28;20240;-61
2022/07/16 08:44:34;;;;;;;3.70;2.22;;;27.80;58.20;;;29.97;28.40;98404.44;5139741;28;20558;-62
2022/07/16 08:47:10;;;;;;;3.40;2.80;;;28.20;57.80;;;30.00;26.98;98406.19;5140338;28;20200;-60
2022/07/16 08:49:45;;;;;;;4.13;2.67;;;28.40;56.30;;;29.90;28.00;98400.13;5131467;28;20266;-61
2022/07/16 08:52:20;;;;;;;2.88;2.33;;;28.00;57.30;;;29.64;27.94;98408.31;5134118;28;20219;-61
2022/07/16 08:54:54;;;;;;;2.50;2.40;;;28.10;57.40;;;29.67;27.89;98407.41;5135731;28;20203;-61
2022/07/16 08:57:27;;;;;;;3.53;3.00;;;28.00;56.60;;;29.68;26.96;98417.97;5138593;28;20246;-62
2022/07/16 09:00:00;;;;;;;3.00;2.45;;;27.90;55.80;;;29.75;26.85;98408.22;5139421;28;20207;-61
2022/07/16 09:02:34;;;;;;;2.80;2.30;;;27.90;55.80;;;29.79;26.91;98412.56;5132606;28;20287;-60
2022/07/16 09:05:09;;;;;;;3.42;2.03;;;28.00;55.70;;;29.79;25.91;98410.81;5136038;28;20220;-61
2022/07/16 09:07:44;;;;;;;4.55;2.15;;;28.00;54.50;;;29.61;26.54;98409.19;5135030;28;20678;-61
2022/07/16 09:10:17;;;;;;;3.22;2.20;;;28.00;54.80;;;29.51;26.73;98417.22;5133342;28;20253;-61
2022/07/16 09:12:50;;;;;;;2.70;2.17;;;28.20;55.10;;;29.54;26.29;98412.78;5132407;28;20224;-60
2022/07/16 09:15:27;;;;;;;2.35;2.03;;;28.10;54.00;;;29.19;26.39;98411.38;5137658;28;20577;-60
2022/07/16 09:18:23;;;;;;;2.00;1.60;;;27.90;54.60;;;29.23;26.66;98417.47;5138580;28;20211;-61
2022/07/16 09:21:00;;;;;;;2.05;1.85;;;28.20;53.90;;;29.38;24.80;98416.47;5134947;28;20215;-59
2022/07/16 09:23:37;;;;;;;3.78;1.90;;;28.10;52.50;;;28.49;26.91;98420.59;5135764;28;20211;-61
2022/07/16 09:26:13;;;;;;;1.88;1.77;;;27.80;53.50;;;28.56;25.44;98413.56;5134472;28;20215;-61
2022/07/16 09:28:48;;;;;;;3.42;1.95;;;27.50;52.50;;;28.42;25.75;98411.00;5135485;28;20263;-59
2022/07/16 09:31:37;;;;;;;2.70;1.92;;;27.30;52.50;;;28.30;26.72;98411.91;5135667;28;20256;-61
2022/07/16 09:34:13;;;;;;;3.25;2.08;;;27.10;53.40;;;28.55;26.21;98419.69;5136491;28;20199;-59
2022/07/16 09:36:58;;;;;;;3.00;1.98;;;27.40;53.00;;;28.64;27.31;98417.00;5130107;28;20203;-60
2022/07/16 09:39:34;;;;;;;2.30;1.77;;;27.50;54.40;;;28.72;26.53;98419.59;5139758;28;20258;-59
2022/07/16 09:42:07;;;;;;;3.25;1.85;;;27.50;53.20;;;28.78;26.37;98422.16;5140365;28;20233;-60
2022/07/16 09:44:44;;;;;;;2.40;1.88;;;27.60;53.60;;;28.60;26.25;98419.66;5142527;28;20644;-60
2022/07/16 09:47:19;;;;;;;2.65;2.15;;;27.70;52.80;;;28.47;26.63;98426.75;5142934;28;20688;-60
2022/07/16 09:49:53;;;;;;;2.65;2.25;;;27.40;53.10;;;28.66;26.44;98417.88;5140182;28;20206;-60
2022/07/16 09:52:32;;;;;;;2.65;2.10;;;27.40;53.30;;;28.55;27.00;98417.06;5143150;28;20233;-60
2022/07/16 09:55:08;;;;;;;5.05;1.83;;;27.40;54.50;;;28.28;25.81;98413.66;5142615;28;20214;-60
2022/07/16 09:57:43;;;;;;;2.83;2.10;;;27.20;52.70;;;28.30;27.66;98411.91;5140010;28;20204;-60
2022/07/16 10:00:17;;;;;;;2.72;2.03;;;27.50;53.70;;;28.33;27.31;98403.16;5142087;28;20210;-60
2022/07/16 10:02:52;;;;;;;2.17;1.98;;;27.50;54.10;;;28.37;26.99;98402.22;5141617;28;20509;-60
2022/07/16 10:05:26;;;;;;;1.77;1.67;;;27.30;53.70;;;28.53;26.92;98408.31;5143388;28;20695;-60
2022/07/16 10:07:59;;;;;;;2.20;2.00;;;27.40;53.90;;;28.71;26.44;98405.56;5141355;28;20208;-59
2022/07/16 10:10:33;;;;;;;2.88;2.05;;;27.80;53.10;;;28.69;26.56;98409.09;5140700;28;20901;-61
2022/07/16 10:13:07;;;;;;;2.20;2.00;;;27.80;53.40;;;28.60;26.15;98398.63;5140217;28;20234;-61
2022/07/16 10:15:42;;;;;;;3.40;2.00;;;27.60;52.40;;;28.81;26.80;98392.34;5141011;28;20238;-63
2022/07/16 10:18:38;;;;;;;2.90;2.10;;;27.80;53.80;;;28.82;26.31;98394.09;5143047;28;20191;-62
2022/07/16 10:21:15;;;;;;;2.40;2.20;;;27.80;53.00;;;28.82;26.46;98386.19;5142481;28;20259;-61
2022/07/16 10:23:50;;;;;;;2.13;1.92;;;27.70;53.50;;;28.68;27.13;98391.56;5143275;28;20203;-58
2022/07/16 10:26:25;;;;;;;2.17;1.90;;;27.80;54.00;;;28.78;27.43;98397.63;5139274;28;20274;-60
2022/07/16 10:28:59;;;;;;;2.40;2.17;;;27.80;54.00;;;28.77;26.24;98402.00;5141166;28;20285;-61
2022/07/16 10:31:36;;;;;;;2.25;2.00;;;27.80;53.10;;;28.63;27.76;98401.25;5140683;28;20282;-61
2022/07/16 10:34:38;;;;;;;2.17;1.98;;;27.60;54.50;;;28.63;26.72;98398.59;5141885;28;20905;-61
2022/07/16 10:37:25;;;;;;;3.30;2.08;;;27.70;54.00;;;28.66;27.34;98395.94;5139967;28;20615;-61
2022/07/16 10:40:24;;;;;;;2.70;1.90;;;27.60;53.80;;;28.46;26.93;98398.69;5155011;28;20203;-61
2022/07/16 10:43:13;;;;;;;2.38;2.10;;;27.50;53.40;;;28.40;26.04;98396.09;5140076;28;20611;-61
2022/07/16 10:45:55;;;;;;;3.03;1.80;;;27.40;52.60;;;28.42;26.24;98407.50;5142339;28;20227;-60
2022/07/16 10:48:31;;;;;;;3.20;1.90;;;27.40;52.80;;;28.37;26.14;98401.38;5140936;28;20207;-61
2022/07/16 10:51:16;;;;;;;2.40;2.20;;;27.40;52.50;;;28.48;26.48;98402.22;5141486;28;20227;-62
2022/07/16 10:54:19;;;;;;;2.67;1.77;;;27.40;53.20;;;28.32;26.27;98400.50;5140759;28;20267;-60
2022/07/16 10:56:54;;;;;;;1.80;1.70;;;27.20;53.20;;;28.18;26.82;98398.81;5142647;28;20204;-61
2022/07/16 10:59:32;;;;;;;2.20;2.00;;;27.10;53.80;;;28.07;26.66;98406.78;5143121;28;20206;-61
2022/07/16 11:02:07;;;;;;;1.80;1.70;;;27.10;53.50;;;28.06;27.20;98406.75;5141652;28;20251;-61